< < Back
Terminal Aerodrome Forecast


Current Version              Previous Versions:   1  2  3  4  5  6  7  8  9  

Terminal Aerodrome Forecast

954
FTUS42 KJAX 041121
TAFJAX
TAF
KJAX 041121Z 0412/0512 18006KT P6SM FEW007
      TEMPO 0412/0413 3SM BR
     FM041400 20009KT P6SM FEW025
     FM041600 21012G18KT P6SM SCT250
     FM050000 19006KT P6SM SCT250
     FM050800 20003KT 3SM BR SCT005=

Latest METAR

815
SAUS80 KWBC 041500 RRA
MTRJAX
METAR KJAX 041456Z 20012KT 10SM SCT019 BKN250 24/19 A3015 RMK AO2 SLP211
T02390194 50008


USA.gov is the U.S. government's official web portal to all federal, state and local government web resources and services.